createdAt,value
2022-12-01T00:01:23.500Z,71.60
2022-12-01T00:03:51.896Z,71.50
2022-12-01T00:06:21.352Z,71.70
2022-12-01T00:09:12.949Z,72.00
2022-12-01T00:11:45.178Z,71.90
2022-12-01T00:14:14.681Z,72.10
2022-12-01T00:16:44.577Z,71.80
2022-12-01T00:19:13.017Z,71.60
2022-12-01T00:21:41.148Z,71.30
2022-12-01T00:24:11.282Z,71.20
2022-12-01T00:26:40.161Z,71.10
2022-12-01T00:29:08.293Z,71.20
2022-12-01T00:31:38.296Z,71.10
2022-12-01T00:34:11.019Z,70.80
2022-12-01T00:36:40.076Z,70.50
2022-12-01T00:39:08.287Z,70.00
2022-12-01T00:41:36.402Z,69.60
2022-12-01T00:44:04.700Z,69.10
2022-12-01T00:46:32.928Z,69.00
2022-12-01T00:49:02.666Z,68.80
2022-12-01T00:51:31.345Z,68.60
2022-12-01T00:53:59.744Z,68.50
2022-12-01T00:56:28.027Z,68.20
2022-12-01T00:58:56.287Z,68.10
2022-12-01T01:01:24.556Z,67.50
2022-12-01T01:03:52.768Z,67.20
2022-12-01T01:06:22.370Z,67.10
2022-12-01T01:08:50.805Z,66.70
2022-12-01T01:11:19.021Z,66.50
2022-12-01T01:13:47.291Z,66.10
2022-12-01T01:16:18.081Z,66.30
2022-12-01T01:18:46.316Z,66.00
2022-12-01T01:21:16.872Z,65.90
2022-12-01T01:23:46.578Z,65.80
2022-12-01T01:26:16.900Z,65.80
2022-12-01T01:28:45.577Z,65.70
2022-12-01T01:31:16.558Z,65.70
2022-12-01T01:33:44.894Z,65.40
2022-12-01T01:36:13.822Z,65.60
2022-12-01T01:38:42.180Z,65.30
2022-12-01T01:41:12.136Z,65.50
2022-12-01T01:43:46.279Z,65.40
2022-12-01T01:46:17.080Z,65.30
2022-12-01T01:48:54.451Z,65.30
2022-12-01T01:51:27.095Z,65.30
2022-12-01T01:54:00.083Z,65.00
2022-12-01T01:56:30.324Z,64.90
2022-12-01T01:58:59.598Z,65.10
2022-12-01T02:01:27.896Z,65.00
2022-12-01T02:03:57.296Z,65.00
2022-12-01T02:06:25.519Z,64.70
2022-12-01T02:08:53.772Z,64.90
2022-12-01T02:11:48.736Z,64.80
2022-12-01T02:14:44.938Z,65.10
2022-12-01T02:17:22.748Z,65.40
2022-12-01T02:20:20.866Z,65.70
2022-12-01T02:23:02.457Z,66.10
2022-12-01T02:25:44.412Z,66.30
2022-12-01T02:28:34.658Z,66.40
2022-12-01T02:31:09.145Z,66.50
2022-12-01T02:33:41.787Z,66.50
2022-12-01T02:36:17.751Z,66.80
2022-12-01T02:38:53.439Z,67.00
2022-12-01T02:41:27.949Z,67.30
2022-12-01T02:44:01.536Z,67.20
2022-12-01T02:46:35.295Z,67.60
2022-12-01T02:49:08.299Z,67.50
2022-12-01T02:51:38.683Z,67.30
2022-12-01T02:54:07.151Z,67.40
2022-12-01T02:56:35.414Z,66.80
2022-12-01T02:59:03.585Z,66.40
2022-12-01T03:01:50.629Z,66.10
2022-12-01T03:04:39.001Z,65.70
2022-12-01T03:07:16.629Z,65.80
2022-12-01T03:09:54.334Z,65.40
2022-12-01T03:12:33.128Z,65.20
2022-12-01T03:15:08.149Z,65.30
2022-12-01T03:17:44.701Z,65.10
2022-12-01T03:20:19.920Z,65.10
2022-12-01T03:22:52.171Z,65.20
2022-12-01T03:25:22.982Z,65.10
2022-12-01T03:28:20.236Z,65.00
2022-12-01T03:30:46.559Z,65.10
2022-12-01T03:33:20.074Z,65.10
2022-12-01T03:35:54.689Z,65.10
2022-12-01T03:38:26.118Z,65.10
2022-12-01T03:40:59.504Z,65.00
2022-12-01T03:43:34.073Z,65.20
2022-12-01T03:46:08.684Z,65.10
2022-12-01T03:48:39.330Z,65.20
2022-12-01T03:51:14.421Z,65.40
2022-12-01T03:53:52.790Z,65.60
2022-12-01T03:56:23.814Z,65.70
2022-12-01T03:58:55.845Z,65.60
2022-12-01T04:01:24.205Z,65.60
2022-12-01T04:03:53.792Z,65.60
2022-12-01T04:06:21.912Z,64.90
2022-12-01T04:08:50.108Z,65.10
2022-12-01T04:11:35.527Z,65.10
2022-12-01T04:14:03.723Z,64.80
2022-12-01T04:16:31.973Z,64.80
2022-12-01T04:19:01.629Z,64.80
2022-12-01T04:21:29.917Z,64.80
2022-12-01T04:24:03.664Z,64.60
2022-12-01T04:26:33.651Z,64.60
2022-12-01T04:29:02.018Z,64.80
2022-12-01T04:31:30.816Z,64.50
2022-12-01T04:33:59.795Z,64.80
2022-12-01T04:36:32.254Z,64.80
2022-12-01T04:39:00.636Z,64.90
2022-12-01T04:41:29.078Z,64.80
2022-12-01T04:43:57.758Z,64.90
2022-12-01T04:46:26.360Z,65.00
2022-12-01T04:48:54.575Z,65.20
2022-12-01T04:51:22.729Z,65.10
2022-12-01T04:53:52.448Z,64.90
2022-12-01T04:56:20.710Z,65.00
2022-12-01T04:58:48.909Z,64.90
2022-12-01T05:01:19.353Z,65.00
2022-12-01T05:03:50.396Z,64.80
2022-12-01T05:06:20.137Z,64.90
2022-12-01T05:08:48.620Z,65.00
2022-12-01T05:11:19.372Z,65.20
2022-12-01T05:13:49.531Z,65.10
2022-12-01T05:16:19.921Z,65.10
2022-12-01T05:18:52.001Z,65.30
2022-12-01T05:21:19.145Z,65.10
2022-12-01T05:23:47.422Z,65.10
2022-12-01T05:26:16.990Z,65.40
2022-12-01T05:28:45.161Z,65.50
2022-12-01T05:31:13.633Z,65.40
2022-12-01T05:33:41.882Z,65.50
2022-12-01T05:36:10.686Z,65.40
2022-12-01T05:38:40.728Z,65.40
2022-12-01T05:41:08.848Z,65.30
2022-12-01T05:43:38.538Z,65.40
2022-12-01T05:46:06.874Z,65.50
2022-12-01T05:48:35.055Z,65.60
2022-12-01T05:51:10.108Z,65.60
2022-12-01T05:53:38.526Z,65.60
2022-12-01T05:56:08.201Z,65.70
2022-12-01T05:58:37.742Z,65.80
2022-12-01T06:01:06.264Z,65.90
2022-12-01T06:03:34.605Z,65.90
2022-12-01T06:06:02.909Z,66.00
2022-12-01T06:08:31.252Z,66.00
2022-12-01T06:10:59.637Z,66.30
2022-12-01T06:13:27.771Z,66.20
2022-12-01T06:16:02.637Z,66.20
2022-12-01T06:18:32.980Z,66.20
2022-12-01T06:21:01.224Z,66.50
2022-12-01T06:23:30.769Z,66.40
2022-12-01T06:25:59.113Z,66.40
2022-12-01T06:28:27.279Z,66.50
2022-12-01T06:30:59.473Z,66.50
2022-12-01T06:33:32.879Z,66.40
2022-12-01T06:36:01.888Z,66.50
2022-12-01T06:38:32.603Z,66.40
2022-12-01T06:41:00.743Z,66.40
2022-12-01T06:43:29.444Z,66.50
2022-12-01T06:46:01.585Z,66.50
2022-12-01T06:48:32.380Z,66.50
2022-12-01T06:51:00.778Z,66.50
2022-12-01T06:53:29.486Z,66.50
2022-12-01T06:56:01.241Z,66.60
2022-12-01T06:58:29.833Z,66.50
2022-12-01T07:00:58.913Z,66.40
2022-12-01T07:03:27.164Z,66.40
2022-12-01T07:06:01.411Z,66.50
2022-12-01T07:08:30.506Z,66.50
2022-12-01T07:10:59.960Z,66.40
2022-12-01T07:13:33.145Z,66.60
2022-12-01T07:16:02.988Z,66.50
2022-12-01T07:18:31.433Z,66.40
2022-12-01T07:21:02.602Z,66.40
2022-12-01T07:23:31.275Z,66.40
2022-12-01T07:26:00.661Z,66.50
2022-12-01T07:28:29.032Z,66.60
2022-12-01T07:31:03.394Z,66.80
2022-12-01T07:33:32.208Z,66.80
2022-12-01T07:36:02.081Z,67.00
2022-12-01T07:38:30.634Z,66.90
2022-12-01T07:41:03.711Z,67.10
2022-12-01T07:43:32.799Z,67.00
2022-12-01T07:46:06.636Z,67.00
2022-12-01T07:48:34.931Z,66.80
2022-12-01T07:51:04.768Z,66.90
2022-12-01T07:53:33.419Z,66.90
2022-12-01T07:56:05.697Z,66.80
2022-12-01T07:58:36.867Z,66.70
2022-12-01T08:01:09.855Z,66.80
2022-12-01T08:03:38.440Z,66.80
2022-12-01T08:06:09.075Z,66.90
2022-12-01T08:08:40.128Z,66.80
2022-12-01T08:11:11.385Z,66.70
2022-12-01T08:13:40.182Z,66.90
2022-12-01T08:16:10.025Z,66.90
2022-12-01T08:18:39.104Z,66.80
2022-12-01T08:21:10.541Z,66.90
2022-12-01T08:23:38.789Z,66.80
2022-12-01T08:26:08.793Z,66.80
2022-12-01T08:28:38.783Z,66.90
2022-12-01T08:31:11.991Z,66.80
2022-12-01T08:33:42.254Z,66.70
2022-12-01T08:36:11.948Z,66.70
2022-12-01T08:38:40.157Z,66.50
2022-12-01T08:41:09.928Z,66.30
2022-12-01T08:46:29.664Z,66.30
2022-12-01T08:48:58.197Z,66.60
2022-12-01T08:51:28.250Z,66.50
2022-12-01T08:53:58.137Z,66.50
2022-12-01T08:56:28.471Z,66.40
2022-12-01T08:58:59.788Z,66.60
2022-12-01T09:01:32.659Z,66.70
2022-12-01T09:04:09.127Z,66.70
2022-12-01T09:06:42.595Z,66.50
2022-12-01T09:09:13.306Z,66.70
2022-12-01T09:11:43.729Z,66.60
2022-12-01T09:14:12.410Z,66.60
2022-12-01T09:16:40.748Z,66.50
2022-12-01T09:19:09.178Z,66.60
2022-12-01T09:21:38.462Z,66.40
2022-12-01T09:24:09.755Z,66.50
2022-12-01T09:26:37.878Z,66.40
2022-12-01T09:29:08.078Z,66.40
2022-12-01T09:31:36.714Z,66.30
2022-12-01T09:34:07.082Z,66.30
2022-12-01T09:36:37.376Z,66.20
2022-12-01T09:39:08.067Z,66.10
2022-12-01T09:41:48.432Z,66.00
2022-12-01T09:44:26.793Z,66.20
2022-12-01T09:47:00.129Z,66.00
2022-12-01T09:49:40.747Z,66.20
2022-12-01T09:52:12.604Z,66.30
2022-12-01T09:54:42.392Z,66.20
2022-12-01T09:57:18.547Z,66.00
2022-12-01T09:59:48.137Z,66.00
2022-12-01T10:02:27.849Z,66.10
2022-12-01T10:04:59.860Z,66.20
2022-12-01T10:07:33.064Z,66.20
2022-12-01T10:10:06.073Z,66.10
2022-12-01T10:12:35.987Z,66.10
2022-12-01T10:15:31.040Z,65.90
2022-12-01T10:18:10.896Z,65.80
2022-12-01T10:20:46.781Z,66.00
2022-12-01T10:23:42.010Z,65.70
2022-12-01T10:26:17.179Z,65.80
2022-12-01T10:28:55.063Z,66.10
2022-12-01T10:31:36.667Z,65.90
2022-12-01T10:34:09.127Z,66.00
2022-12-01T10:36:37.324Z,65.70
2022-12-01T10:39:07.903Z,65.90
2022-12-01T10:41:40.453Z,65.60
2022-12-01T10:44:09.812Z,65.70
2022-12-01T10:46:44.324Z,65.90
2022-12-01T10:49:14.385Z,65.90
2022-12-01T10:51:56.902Z,65.70
2022-12-01T10:54:33.974Z,65.80
2022-12-01T10:57:04.280Z,66.00
2022-12-01T10:59:36.900Z,66.00
2022-12-01T11:02:15.414Z,66.20
2022-12-01T11:04:47.385Z,66.20
2022-12-01T11:07:21.761Z,66.30
2022-12-01T11:10:01.204Z,66.40
2022-12-01T11:12:31.106Z,66.20
2022-12-01T11:14:59.714Z,66.30
2022-12-01T11:17:32.648Z,66.50
2022-12-01T11:20:18.016Z,66.40
2022-12-01T11:22:46.261Z,66.30
2022-12-01T11:25:21.744Z,66.50
2022-12-01T11:27:54.307Z,66.10
2022-12-01T11:30:24.784Z,66.50
2022-12-01T11:32:56.152Z,66.40
2022-12-01T11:35:27.224Z,66.30
2022-12-01T11:38:28.182Z,66.40
2022-12-01T11:40:52.172Z,66.30
2022-12-01T11:43:27.513Z,66.30
2022-12-01T11:45:58.098Z,66.20
2022-12-01T11:48:28.311Z,66.00
2022-12-01T11:51:06.712Z,65.80
2022-12-01T11:53:36.418Z,66.00
2022-12-01T11:56:20.980Z,65.80
2022-12-01T11:58:52.207Z,65.70
2022-12-01T12:01:31.529Z,65.50
2022-12-01T12:04:10.559Z,65.40
2022-12-01T12:06:45.783Z,65.10
2022-12-01T12:09:45.119Z,65.10
2022-12-01T12:12:24.644Z,65.20
2022-12-01T12:15:05.729Z,64.90
2022-12-01T12:17:50.079Z,65.20
2022-12-01T12:20:43.919Z,65.00
2022-12-01T12:23:44.589Z,64.90
2022-12-01T12:26:21.303Z,64.80
2022-12-01T12:29:13.790Z,64.50
2022-12-01T12:31:54.711Z,64.50
2022-12-01T12:34:36.168Z,64.70
2022-12-01T12:37:17.660Z,64.50
2022-12-01T12:40:06.207Z,64.80
2022-12-01T12:42:44.845Z,64.60
2022-12-01T12:45:21.652Z,64.70
2022-12-01T12:48:02.610Z,64.20
2022-12-01T12:50:37.694Z,64.50
2022-12-01T12:53:11.335Z,64.50
2022-12-01T12:55:44.258Z,64.60
2022-12-01T12:58:19.283Z,64.30
2022-12-01T13:00:52.585Z,64.10
2022-12-01T13:03:33.737Z,64.40
2022-12-01T13:06:06.934Z,64.30
2022-12-01T13:08:41.112Z,64.20
2022-12-01T13:11:16.094Z,64.40
2022-12-01T13:13:55.217Z,64.20
2022-12-01T13:16:28.262Z,64.00
2022-12-01T13:19:05.112Z,64.20
2022-12-01T13:21:38.388Z,64.00
2022-12-01T13:24:08.660Z,64.30
2022-12-01T13:26:38.970Z,64.30
2022-12-01T13:29:09.167Z,64.40
2022-12-01T13:31:49.439Z,64.40
2022-12-01T13:34:25.960Z,64.70
2022-12-01T13:36:56.530Z,64.50
2022-12-01T13:39:26.690Z,64.50
2022-12-01T13:42:03.773Z,64.30
2022-12-01T13:44:38.523Z,64.40
2022-12-01T13:47:40.102Z,64.40
2022-12-01T13:50:54.166Z,64.20
2022-12-01T13:53:32.955Z,64.20
2022-12-01T13:56:27.401Z,64.30
2022-12-01T13:58:56.341Z,64.30
2022-12-01T14:02:08.362Z,64.40
2022-12-01T14:04:37.278Z,64.60
2022-12-01T14:07:31.435Z,64.50
2022-12-01T14:10:26.045Z,64.70
2022-12-01T14:12:57.185Z,64.80
2022-12-01T14:15:34.575Z,64.80
2022-12-01T14:18:07.200Z,64.70
2022-12-01T14:20:44.669Z,64.60
2022-12-01T14:23:17.420Z,64.60
2022-12-01T14:26:13.636Z,64.60
2022-12-01T14:29:30.041Z,64.90
2022-12-01T14:32:23.037Z,65.40
2022-12-01T14:35:07.322Z,65.60
2022-12-01T14:37:47.339Z,65.80
2022-12-01T14:40:22.556Z,65.90
2022-12-01T14:43:13.491Z,66.00
2022-12-01T14:45:48.662Z,66.30
2022-12-01T14:48:21.283Z,66.40
2022-12-01T14:50:52.460Z,66.40
2022-12-01T14:53:25.959Z,66.40
2022-12-01T14:55:57.519Z,66.50
2022-12-01T14:58:29.690Z,66.60
2022-12-01T15:01:09.942Z,66.90
2022-12-01T15:03:42.479Z,67.10
2022-12-01T15:06:11.588Z,67.20
2022-12-01T15:08:43.558Z,67.50
2022-12-01T15:11:22.310Z,67.70
2022-12-01T15:13:55.364Z,67.80
2022-12-01T15:16:25.029Z,68.00
2022-12-01T15:18:53.426Z,68.20
2022-12-01T15:21:26.571Z,68.20
2022-12-01T15:23:56.721Z,68.50
2022-12-01T15:26:27.359Z,68.30
2022-12-01T15:29:16.858Z,68.60
2022-12-01T15:31:49.424Z,68.70
2022-12-01T15:34:20.434Z,69.00
2022-12-01T15:36:49.639Z,69.10
2022-12-01T15:39:20.054Z,69.10
2022-12-01T15:41:53.952Z,69.20
2022-12-01T15:44:29.142Z,69.30
2022-12-01T15:46:57.740Z,69.50
2022-12-01T15:49:29.640Z,69.70
2022-12-01T15:52:07.596Z,69.70
2022-12-01T15:54:37.104Z,70.10
2022-12-01T15:57:06.692Z,70.30
2022-12-01T15:59:40.096Z,70.40
2022-12-01T16:02:20.742Z,70.40
2022-12-01T16:04:49.813Z,70.80
2022-12-01T16:07:18.286Z,70.80
2022-12-01T16:09:58.302Z,71.00
2022-12-01T16:12:27.978Z,71.30
2022-12-01T16:15:08.323Z,71.30
2022-12-01T16:17:44.435Z,71.20
2022-12-01T16:20:23.862Z,71.10
2022-12-01T16:22:58.919Z,71.20
2022-12-01T16:25:34.665Z,71.30
2022-12-01T16:28:03.939Z,71.30
2022-12-01T16:30:40.337Z,71.40
2022-12-01T16:33:19.151Z,71.60
2022-12-01T16:35:47.645Z,71.70
2022-12-01T16:38:20.640Z,71.80
2022-12-01T16:40:49.795Z,72.10
2022-12-01T16:43:19.683Z,72.20
2022-12-01T16:45:53.028Z,72.20
2022-12-01T16:48:21.631Z,72.30
2022-12-01T16:50:50.694Z,72.30
2022-12-01T16:53:19.145Z,72.20
2022-12-01T16:55:50.786Z,72.40
2022-12-01T16:58:19.100Z,72.40
2022-12-01T17:00:52.771Z,72.30
2022-12-01T17:03:22.864Z,72.70
2022-12-01T17:05:52.174Z,72.90
2022-12-01T17:08:21.294Z,72.90
2022-12-01T17:10:51.479Z,72.80
2022-12-01T17:13:21.654Z,72.80
2022-12-01T17:15:53.855Z,72.70
2022-12-01T17:18:24.218Z,72.80
2022-12-01T17:20:59.922Z,73.10
2022-12-01T17:23:29.044Z,73.10
2022-12-01T17:25:57.497Z,73.00
2022-12-01T17:28:25.680Z,73.10
2022-12-01T17:30:55.316Z,73.00
2022-12-01T17:33:23.701Z,73.30
2022-12-01T17:35:51.976Z,73.30
2022-12-01T17:38:20.413Z,73.30
2022-12-01T17:41:01.556Z,73.50
2022-12-01T17:43:30.285Z,73.40
2022-12-01T17:45:59.909Z,73.40
2022-12-01T17:48:28.757Z,73.40
2022-12-01T17:50:57.032Z,73.40
2022-12-01T17:53:25.302Z,73.40
2022-12-01T17:55:53.554Z,73.60
2022-12-01T17:58:22.234Z,73.60
2022-12-01T18:00:51.370Z,73.70
2022-12-01T18:03:21.438Z,73.70
2022-12-01T18:05:56.557Z,73.70
2022-12-01T18:08:25.441Z,73.60
2022-12-01T18:10:53.933Z,73.70
2022-12-01T18:13:22.514Z,73.70
2022-12-01T18:15:50.959Z,73.70
2022-12-01T18:18:20.650Z,73.90
2022-12-01T18:20:48.992Z,73.80
2022-12-01T18:23:17.171Z,74.20
2022-12-01T18:25:45.394Z,74.40
2022-12-01T18:28:13.650Z,74.40
2022-12-01T18:30:41.936Z,74.50
2022-12-01T18:33:12.297Z,74.50
2022-12-01T18:35:45.812Z,74.40
2022-12-01T18:38:14.009Z,74.40
2022-12-01T18:40:42.255Z,74.50
2022-12-01T18:43:10.599Z,74.50
2022-12-01T18:45:40.849Z,74.70
2022-12-01T18:48:09.406Z,74.60
2022-12-01T18:50:38.036Z,75.00
2022-12-01T18:53:07.685Z,75.00
2022-12-01T18:55:37.450Z,74.90
2022-12-01T18:58:05.600Z,75.00
2022-12-01T19:00:33.862Z,75.00
2022-12-01T19:03:03.073Z,75.10
2022-12-01T19:05:31.870Z,75.10
2022-12-01T19:08:00.231Z,75.20
2022-12-01T19:10:29.938Z,75.40
2022-12-01T19:13:00.708Z,75.20
2022-12-01T19:15:30.092Z,75.50
2022-12-01T19:18:02.424Z,75.50
2022-12-01T19:20:30.846Z,75.50
2022-12-01T19:23:02.567Z,75.60
2022-12-01T19:25:37.086Z,75.70
2022-12-01T19:28:06.684Z,76.00
2022-12-01T19:30:34.986Z,76.00
2022-12-01T19:33:03.319Z,75.80
2022-12-01T19:35:34.155Z,75.80
2022-12-01T19:38:05.432Z,76.10
2022-12-01T19:40:35.285Z,76.10
2022-12-01T19:43:03.580Z,76.20
2022-12-01T19:45:37.811Z,76.20
2022-12-01T19:48:14.580Z,76.10
2022-12-01T19:50:45.695Z,76.20
2022-12-01T19:53:13.877Z,76.10
2022-12-01T19:55:43.484Z,76.40
2022-12-01T19:58:11.770Z,76.50
2022-12-01T20:00:39.958Z,76.40
2022-12-01T20:03:08.247Z,76.40
2022-12-01T20:05:36.396Z,76.50
2022-12-01T20:08:05.101Z,76.50
2022-12-01T20:10:33.353Z,76.60
2022-12-01T20:13:03.052Z,76.60
2022-12-01T20:15:33.826Z,76.60
2022-12-01T20:18:02.124Z,76.60
2022-12-01T20:20:30.389Z,76.80
2022-12-01T20:22:59.512Z,76.80
2022-12-01T20:25:28.032Z,76.50
2022-12-01T20:27:57.224Z,76.70
2022-12-01T20:30:27.995Z,76.80
2022-12-01T20:32:56.636Z,77.00
2022-12-01T20:35:25.234Z,77.00
2022-12-01T20:37:53.496Z,76.80
2022-12-01T20:40:21.810Z,76.90
2022-12-01T20:42:53.176Z,77.30
2022-12-01T20:45:21.934Z,77.40
2022-12-01T20:47:51.614Z,77.30
2022-12-01T20:50:21.386Z,77.20
2022-12-01T20:52:50.239Z,77.30
2022-12-01T20:55:19.750Z,77.30
2022-12-01T20:57:48.016Z,77.30
2022-12-01T21:00:17.485Z,77.20
2022-12-01T21:02:47.947Z,77.10
2022-12-01T21:05:18.562Z,77.20
2022-12-01T21:07:47.717Z,77.20
2022-12-01T21:10:19.920Z,77.40
2022-12-01T21:13:19.544Z,77.50
2022-12-01T21:15:56.280Z,77.50
2022-12-01T21:18:34.714Z,77.50
2022-12-01T21:21:08.057Z,77.30
2022-12-01T21:23:36.356Z,77.50
2022-12-01T21:26:10.013Z,77.70
2022-12-01T21:28:38.785Z,77.60
2022-12-01T21:31:14.067Z,77.60
2022-12-01T21:33:42.993Z,77.50
2022-12-01T21:36:18.252Z,77.60
2022-12-01T21:38:47.323Z,77.20
2022-12-01T21:41:21.745Z,77.30
2022-12-01T21:43:50.018Z,77.30
2022-12-01T21:46:19.277Z,77.70
2022-12-01T21:48:47.529Z,77.70
2022-12-01T21:51:22.965Z,77.60
2022-12-01T21:53:55.341Z,77.80
2022-12-01T21:56:26.634Z,78.20
2022-12-01T21:59:00.069Z,78.30
2022-12-01T22:01:34.165Z,78.20
2022-12-01T22:04:12.330Z,78.60
2022-12-01T22:06:48.613Z,78.50
2022-12-01T22:09:33.055Z,78.60
2022-12-01T22:12:19.191Z,78.40
2022-12-01T22:14:52.042Z,78.40
2022-12-01T22:17:23.941Z,78.60
2022-12-01T22:20:01.572Z,78.70
2022-12-01T22:22:36.642Z,78.40
2022-12-01T22:25:24.018Z,78.50
2022-12-01T22:28:00.753Z,78.80
2022-12-01T22:30:29.862Z,78.90
2022-12-01T22:33:03.674Z,78.80
2022-12-01T22:35:35.816Z,78.70
2022-12-01T22:38:25.752Z,78.60
2022-12-01T22:40:58.278Z,78.50
2022-12-01T22:43:55.069Z,78.50
2022-12-01T22:46:30.445Z,78.50
2022-12-01T22:49:00.271Z,78.40
2022-12-01T22:51:49.086Z,78.40
2022-12-01T22:54:28.990Z,78.30
2022-12-01T22:57:26.228Z,78.50
2022-12-01T22:59:55.312Z,78.50
2022-12-01T23:02:25.510Z,78.60
2022-12-01T23:04:57.724Z,78.50
2022-12-01T23:07:34.616Z,78.40
2022-12-01T23:10:13.367Z,78.40
2022-12-01T23:12:42.859Z,78.40
2022-12-01T23:15:23.819Z,78.40
2022-12-01T23:17:52.528Z,78.40
2022-12-01T23:20:31.160Z,78.30
2022-12-01T23:23:01.686Z,78.20
2022-12-01T23:25:32.176Z,78.10
2022-12-01T23:28:04.421Z,78.40
2022-12-01T23:30:33.165Z,78.40
2022-12-01T23:33:10.647Z,78.50
2022-12-01T23:35:42.348Z,78.40
2022-12-01T23:38:17.177Z,78.50
2022-12-01T23:40:47.237Z,78.50
2022-12-01T23:43:20.422Z,78.50
2022-12-01T23:45:50.988Z,78.40
2022-12-01T23:48:23.348Z,78.50
2022-12-01T23:50:54.482Z,78.50
2022-12-01T23:53:29.696Z,78.50
2022-12-01T23:56:06.784Z,78.50
2022-12-01T23:58:35.893Z,78.50
